• Join FlightAware (Why Join?)
  • Login
  • US Flag 
11:15AM EST


 

Airport Tracker/Info


-or-


 

Live Flight TrackerFlight Track Log ✈ HPJ65 ✈ 05-May-2013 ✈ KTLH - KFXE

Flight Track Log - Related Links

Times and Time Zones

All times are in EDT time to prevent confusion due to time zone crossing. See the HPJ65 flight status page for this flight to view local times or setup timezone preferences in your user account.

Time Position Orientation Groundspeed Altitude Reporting Facility
EDT Latitude Longitude Course Direction KTS MPH feet Rate Location/Type
07:12PM 30.2406 -84.2533 143° Southeast 256 295 11,800  Level Jacksonville Center
07:13PM 30.1681 -84.1900 143° Southeast 295 339 14,800 2,700 Climbing Jacksonville Center
07:14PM 30.0789 -84.1167 145° Southeast 349 402 17,200 2,400 Climbing Jacksonville Center
07:15PM 29.9817 -84.0339 144° Southeast 405 466 19,700 2,280 Climbing Jacksonville Center
07:16PM 30.1506 -84.1126 151° Southeast  Level FlightAware Approximate
07:16PM 29.8822 -83.9489 143° Southeast 436 502 21,800  Level Jacksonville Center
07:17PM 29.7764 -83.8664 146° Southeast 450 518 24,300 2,460 Climbing Jacksonville Center
07:18PM 29.6642 -83.7936 151° Southeast 456 525 26,800 2,460 Climbing Jacksonville Center
07:19PM 29.5497 -83.7208 151° Southeast 467 537 29,300 2,400 Climbing Jacksonville Center
07:20PM 29.4375 -83.6508 151° Southeast 467 537 31,700 1,800 Climbing Jacksonville Center
07:21PM 29.3253 -83.5786 151° Southeast 467 537 32,900 600 Climbing Jacksonville Center
07:22PM 29.2086 -83.5064 152° Southeast 467 537 33,000  Climbing Jacksonville Center
07:23PM 29.0964 -83.4319 150° Southeast 467 537 33,000  Level Jacksonville Center
07:24PM 28.9817 -83.3578 151° Southeast 467 537 33,000  Level Jacksonville Center
07:25PM 28.8589 -83.2647 146° Southeast 482 555 33,000  Level Jacksonville Center
07:26PM 28.7506 -83.1744 144° Southeast 487 560 33,000  Level Jacksonville Center
07:28PM 28.5358 -82.9942 144° Southeast 487 560 33,000  Level Jacksonville Center
07:29PM 28.4294 -82.9044 143° Southeast 487 560 33,000  Level Jacksonville Center
07:30PM 28.3189 -82.8125 144° Southeast 487 560 33,000  Level Jacksonville Center
07:32PM 28.0808 -82.6167 144° Southeast 489 563 33,000  Level Miami Center
07:33PM 27.9719 -82.5219 142° Southeast 494 568 33,000  Level Miami Center
07:34PM 27.8511 -82.4689 159° South 474 545 33,000  Level Miami Center
07:35PM 27.7153 -82.4200 162° South 465 535 33,000 -660 Level Miami Center
07:36PM 27.5914 -82.3858 166° South 460 529 31,700 -1,260 Descending Miami Center
07:37PM 27.4714 -82.4106 190° South 444 511 30,500 -1,200 Descending Miami Center
07:38PM 27.3600 -82.4333 190° South 449 517 29,300 -780 Descending Miami Center
07:39PM 27.2422 -82.4603 191° South 449 517 29,000 -300 Descending Miami Center
07:40PM 27.1211 -82.4592 180° South 455 524 28,800 -780 Descending Miami Center
07:41PM 27.0267 -82.3636 138° Southeast 407 468 27,500 -1,500 Descending Miami Center
07:42PM 26.9478 -82.2433 126° Southeast 414 476 25,800 -1,680 Descending Miami Center
07:43PM 26.8786 -82.1356 126° Southeast 419 482 24,200 -900 Descending Miami Center
07:44PM 26.8094 -82.0300 126° Southeast 424 488 24,000 -120 Descending Miami Center
07:45PM 26.7400 -81.9269 127° Southeast 419 482 24,000  Level Miami Center
07:46PM 26.6664 -81.8169 127° Southeast 426 490 24,000 -780 Level Miami Center
07:47PM 26.5911 -81.7000 126° Southeast 449 517 22,500 -1,800 Descending Miami Center
07:48PM 26.5256 -81.5975 126° Southeast 454 522 20,400 -2,280 Descending Miami Center
07:50PM 26.5007 -81.4627 134° Southeast  Level FlightAware Approximate
07:50PM 26.3681 -81.3617 134° Southeast 462 532 15,700  Level Miami Center
07:51PM 26.3061 -81.2692 127° Southeast 419 482 13,900 -1,800 Descending Miami Center
07:52PM 26.2483 -81.1836 127° Southeast 383 441 12,100 -1,740 Descending Miami Center
07:53PM 26.2239 -81.1550 134° Southeast 350 403 11,600 -1,800 Descending Miami Center
07:53PM 26.1939 -81.1122 128° Southeast 343 395 10,600 -1,620 Descending Miami Center
07:54PM 26.1400 -81.0269 125° Southeast 281 323 9,000 -1,260 Descending Miami Center
07:55PM 26.1006 -80.9447 118° Southeast 305 351 8,000 -1,140 Descending Miami Center
07:56PM 26.1342 -80.8603 66° East 258 297 6,700 -1,800 Descending Miami Center
07:57PM 26.1636 -80.7803 68° East 258 297 4,400 -1,260 Descending Miami Center
07:59PM 26.1869 -80.6836 75° East 273 314 4,000 -420 Descending Miami Center
07:59PM 26.2033 -80.6194 74° East 264 304 3,600 -600 Descending Miami Center
08:01PM 26.2181 -80.5342 79° East 278 320 3,000 -300 Descending Miami Center
08:01PM 26.2364 -80.4700 72° East 269 310 3,000  Level Miami Center
08:02PM 26.2550 -80.3825 77° East 269 310 3,000  Level Miami Center
08:03PM 26.2578 -80.3547 84° East 270 311 3,000  Level Miami Center
08:04PM 26.2639 -80.2717 85° East 269 310 3,000  Level Miami Center
08:05PM 26.2700 -80.1953 85° East 267 307 3,000 -120 Level Miami Center
08:06PM 26.2694 -80.1303 91° East 188 216 2,800 -660 Descending Miami Center
08:07PM 26.2197 -80.1083 158° South 180 207 1,700 -1,140 Descending Miami Center
08:08PM 26.2003 -80.1400 236° Southwest 137 158 500 -1,200 Descending Miami Center
08:10PM 26.1833 -80.1667 241° Southwest  Level FlightAware Approximate
08:17PM 26.1973 -80.1707 241° Southwest  Level Estimated